Time;durP1;ratioP1;P1;durP2;ratioP2;P2;SDS_P1;SDS_P2;PMS_P1;PMS_P2;Temp;Humidity;BMP_temperature;BMP_pressure;BME280_temperature;BME280_humidity;BME280_pressure;Samples;Min_cycle;Max_cycle;Signal;HPM_P1;HPM_P2
2021/05/21 00:00:18;;;;;;;1.92;1.80;;;;;;;;;;5101166;28;20390;-68
2021/05/21 00:02:44;;;;;;;1.85;1.60;;;;;;;;;;5098782;28;20073;-69
2021/05/21 00:05:10;;;;;;;2.33;1.92;;;;;;;;;;5100834;28;20039;-68
2021/05/21 00:07:37;;;;;;;3.17;2.40;;;;;;;;;;5114832;28;20470;-67
2021/05/21 00:10:04;;;;;;;2.85;2.30;;;;;;;;;;5114969;28;20385;-68
2021/05/21 00:12:30;;;;;;;3.15;2.20;;;;;;;;;;5097013;28;20033;-69
2021/05/21 00:14:56;;;;;;;3.25;2.47;;;;;;;;;;5097102;28;20028;-70
2021/05/21 00:17:22;;;;;;;4.38;2.80;;;;;;;;;;5099413;28;20477;-67
2021/05/21 00:19:49;;;;;;;3.45;2.88;;;;;;;;;;5114028;28;20035;-69
2021/05/21 00:22:15;;;;;;;3.50;2.92;;;;;;;;;;5105671;28;20024;-69
2021/05/21 00:24:41;;;;;;;3.97;3.30;;;;;;;;;;5105006;28;20051;-69
2021/05/21 00:27:07;;;;;;;4.25;3.42;;;;;;;;;;5107743;28;20035;-69
2021/05/21 00:29:33;;;;;;;4.57;3.53;;;;;;;;;;5093923;28;20017;-68
2021/05/21 00:31:59;;;;;;;5.75;4.22;;;;;;;;;;5095193;28;20027;-70
2021/05/21 00:34:26;;;;;;;6.47;4.20;;;;;;;;;;5096594;28;20368;-69
2021/05/21 00:36:53;;;;;;;9.40;4.90;;;;;;;;;;5112359;28;20481;-69
2021/05/21 00:39:19;;;;;;;5.30;4.43;;;;;;;;;;5111951;28;20043;-69
2021/05/21 00:41:46;;;;;;;8.88;5.07;;;;;;;;;;5093856;28;20074;-68
2021/05/21 00:44:12;;;;;;;6.53;4.78;;;;;;;;;;5108300;28;20033;-68
2021/05/21 00:46:38;;;;;;;8.48;5.50;;;;;;;;;;5112117;28;20059;-68
2021/05/21 00:49:04;;;;;;;9.60;6.45;;;;;;;;;;5112216;28;20164;-68
2021/05/21 00:51:32;;;;;;;9.30;6.80;;;;;;;;;;5110770;28;20027;-70
2021/05/21 00:53:59;;;;;;;10.10;6.25;;;;;;;;;;5113045;28;20073;-69
2021/05/21 00:56:25;;;;;;;17.23;6.82;;;;;;;;;;5094949;28;20028;-67
2021/05/21 00:58:52;;;;;;;14.35;6.53;;;;;;;;;;5093019;28;20115;-69
2021/05/21 01:01:18;;;;;;;14.52;7.13;;;;;;;;;;5096630;28;20102;-71
2021/05/21 01:03:45;;;;;;;13.77;6.35;;;;;;;;;;5109658;28;20027;-70
2021/05/21 01:06:11;;;;;;;10.10;5.70;;;;;;;;;;5104523;28;20031;-70
2021/05/21 01:08:38;;;;;;;11.77;6.75;;;;;;;;;;5108296;28;20483;-69
2021/05/21 01:11:05;;;;;;;11.95;5.00;;;;;;;;;;5111125;28;20486;-69
2021/05/21 01:13:32;;;;;;;9.63;4.43;;;;;;;;;;5113270;28;20020;-67
2021/05/21 01:15:58;;;;;;;7.65;4.97;;;;;;;;;;5113644;28;20383;-68
2021/05/21 01:18:24;;;;;;;6.90;4.72;;;;;;;;;;5114070;28;20034;-67
2021/05/21 01:20:50;;;;;;;8.60;4.60;;;;;;;;;;5114448;28;20027;-70
2021/05/21 01:23:16;;;;;;;5.55;3.67;;;;;;;;;;5097500;28;20024;-70
2021/05/21 01:25:43;;;;;;;6.90;3.33;;;;;;;;;;5105945;28;20043;-69
2021/05/21 01:28:11;;;;;;;4.65;3.30;;;;;;;;;;5101242;28;20080;-69
2021/05/21 01:30:37;;;;;;;4.60;3.15;;;;;;;;;;5106948;28;20609;-69
2021/05/21 01:33:07;;;;;;;4.90;3.17;;;;;;;;;;5112379;28;20024;-70
2021/05/21 01:35:34;;;;;;;4.10;2.80;;;;;;;;;;5101540;28;20020;-68
2021/05/21 01:38:00;;;;;;;6.82;3.47;;;;;;;;;;5113368;28;20136;-69
2021/05/21 01:40:26;;;;;;;5.53;3.38;;;;;;;;;;5112825;28;20024;-69
2021/05/21 01:42:52;;;;;;;4.93;3.25;;;;;;;;;;5096039;28;20044;-70
2021/05/21 01:45:18;;;;;;;5.20;3.63;;;;;;;;;;5112644;28;20024;-68
2021/05/21 01:47:47;;;;;;;4.55;3.15;;;;;;;;;;5109708;28;20080;-70
2021/05/21 01:50:14;;;;;;;4.18;3.13;;;;;;;;;;5113169;28;20019;-68
2021/05/21 01:52:40;;;;;;;5.35;3.08;;;;;;;;;;5098953;28;20031;-69
2021/05/21 01:55:06;;;;;;;3.30;2.85;;;;;;;;;;5094677;28;20115;-70
2021/05/21 01:57:35;;;;;;;3.90;3.10;;;;;;;;;;5092444;28;20501;-67
2021/05/21 02:00:01;;;;;;;4.03;2.90;;;;;;;;;;5092860;28;20044;-70
2021/05/21 02:02:27;;;;;;;4.13;3.03;;;;;;;;;;5105841;28;20058;-70
2021/05/21 02:04:54;;;;;;;3.65;3.05;;;;;;;;;;5101640;28;20044;-70
2021/05/21 02:07:20;;;;;;;3.92;3.00;;;;;;;;;;5110761;28;20027;-70
2021/05/21 02:09:53;;;;;;;3.58;2.85;;;;;;;;;;5112587;28;20027;-70
2021/05/21 02:12:20;;;;;;;5.10;2.47;;;;;;;;;;5099188;28;20049;-69
2021/05/21 02:14:46;;;;;;;3.90;3.10;;;;;;;;;;5115056;28;20393;-70
2021/05/21 02:17:12;;;;;;;3.58;2.70;;;;;;;;;;5106202;28;20034;-69
2021/05/21 02:19:38;;;;;;;4.85;3.40;;;;;;;;;;5098268;27;20490;-70
2021/05/21 02:22:04;;;;;;;4.35;3.05;;;;;;;;;;5137275;27;20027;-70
2021/05/21 02:24:30;;;;;;;3.63;2.78;;;;;;;;;;5127801;27;20082;-69
2021/05/21 02:26:56;;;;;;;4.90;2.70;;;;;;;;;;5116538;28;20035;-70
2021/05/21 02:29:22;;;;;;;3.88;3.08;;;;;;;;;;5116679;28;20020;-69
2021/05/21 02:31:48;;;;;;;4.78;2.75;;;;;;;;;;5116581;28;20031;-70
2021/05/21 02:34:14;;;;;;;5.25;2.75;;;;;;;;;;5115214;28;20265;-68
2021/05/21 02:36:40;;;;;;;3.13;2.53;;;;;;;;;;5116552;28;20030;-69
2021/05/21 02:39:06;;;;;;;3.45;3.00;;;;;;;;;;5105041;28;20535;-70
2021/05/21 02:41:32;;;;;;;3.20;2.70;;;;;;;;;;5096021;28;20028;-69
2021/05/21 02:43:59;;;;;;;4.28;2.65;;;;;;;;;;5095906;28;20494;-70
2021/05/21 02:46:25;;;;;;;3.70;2.60;;;;;;;;;;5095860;28;20115;-68
2021/05/21 02:48:51;;;;;;;3.00;2.65;;;;;;;;;;5095775;28;20531;-69
2021/05/21 02:51:17;;;;;;;3.38;2.92;;;;;;;;;;5106948;28;20028;-69
2021/05/21 02:53:43;;;;;;;3.60;2.53;;;;;;;;;;5116119;28;20020;-69
2021/05/21 02:56:09;;;;;;;2.50;2.30;;;;;;;;;;5099518;28;20035;-68
2021/05/21 02:58:35;;;;;;;5.50;3.50;;;;;;;;;;5095718;28;20114;-69
2021/05/21 03:01:02;;;;;;;4.93;2.72;;;;;;;;;;5095682;28;20498;-68
2021/05/21 03:03:28;;;;;;;2.95;2.58;;;;;;;;;;5095434;28;20120;-69
2021/05/21 03:05:55;;;;;;;2.90;2.60;;;;;;;;;;5095301;28;20150;-68
2021/05/21 03:08:21;;;;;;;2.22;2.03;;;;;;;;;;5096038;28;20020;-68
2021/05/21 03:10:47;;;;;;;3.35;3.03;;;;;;;;;;5095422;28;20016;-69
2021/05/21 03:13:13;;;;;;;2.25;2.05;;;;;;;;;;5095342;28;20479;-70
2021/05/21 03:15:42;;;;;;;3.30;3.00;;;;;;;;;;5095344;28;20153;-69
2021/05/21 03:18:18;;;;;;;2.95;2.30;;;;;;;;;;5095223;28;20479;-69
2021/05/21 03:20:44;;;;;;;;;;;;;;;;;;5095712;28;20023;-70
2021/05/21 03:23:09;;;;;;;;;;;;;;;;;;5094630;28;19922;-70
2021/05/21 03:25:35;;;;;;;;;;;;;;;;;;5106629;28;20007;-69
2021/05/21 03:28:02;;;;;;;4.30;2.40;;;;;;;;;;5115532;28;20315;-70
2021/05/21 03:30:28;;;;;;;2.85;2.38;;;;;;;;;;5115467;28;20026;-69
2021/05/21 03:32:54;;;;;;;2.40;2.13;;;;;;;;;;5115392;28;20459;-69
2021/05/21 03:35:21;;;;;;;2.33;2.08;;;;;;;;;;5115274;28;20023;-69
2021/05/21 03:37:47;;;;;;;2.42;2.17;;;;;;;;;;5115317;28;20028;-70
2021/05/21 03:40:13;;;;;;;2.55;2.13;;;;;;;;;;5115250;28;20034;-70
2021/05/21 03:42:39;;;;;;;2.55;2.35;;;;;;;;;;5114302;28;20037;-68
2021/05/21 03:45:06;;;;;;;2.58;2.25;;;;;;;;;;5115110;28;20072;-69
2021/05/21 03:47:33;;;;;;;5.95;2.55;;;;;;;;;;5114887;28;20099;-68
2021/05/21 03:49:59;;;;;;;2.60;2.40;;;;;;;;;;5115089;28;20108;-68
2021/05/21 03:52:26;;;;;;;4.95;2.50;;;;;;;;;;5115217;28;20377;-69
2021/05/21 03:54:52;;;;;;;2.30;2.10;;;;;;;;;;5114893;28;20019;-68
2021/05/21 03:57:20;;;;;;;2.67;1.92;;;;;;;;;;5114914;28;20542;-69
2021/05/21 03:59:46;;;;;;;2.40;2.10;;;;;;;;;;5114059;28;20088;-69
2021/05/21 04:02:12;;;;;;;3.33;2.25;;;;;;;;;;5114726;28;20031;-68
2021/05/21 04:04:39;;;;;;;3.00;2.10;;;;;;;;;;5114647;28;20502;-69
2021/05/21 04:07:05;;;;;;;2.30;2.10;;;;;;;;;;5114665;28;20035;-69
2021/05/21 04:09:31;;;;;;;3.75;2.67;;;;;;;;;;5114936;28;20546;-69
2021/05/21 04:11:57;;;;;;;2.88;2.45;;;;;;;;;;5114852;28;20055;-68
2021/05/21 04:14:23;;;;;;;3.40;2.90;;;;;;;;;;5114681;28;20494;-70
2021/05/21 04:16:49;;;;;;;3.33;2.95;;;;;;;;;;5113525;28;20019;-69
2021/05/21 04:19:15;;;;;;;3.72;3.30;;;;;;;;;;5114550;28;20027;-68
2021/05/21 04:21:42;;;;;;;3.45;3.13;;;;;;;;;;5114618;28;20362;-70
2021/05/21 04:24:08;;;;;;;4.65;3.22;;;;;;;;;;5114405;28;20052;-69
2021/05/21 04:26:34;;;;;;;5.18;3.15;;;;;;;;;;5114269;28;20028;-70
2021/05/21 04:29:00;;;;;;;3.65;3.33;;;;;;;;;;5114329;28;20016;-70
2021/05/21 04:31:26;;;;;;;3.50;3.20;;;;;;;;;;5114221;28;20488;-69
2021/05/21 04:33:52;;;;;;;4.15;3.75;;;;;;;;;;5113337;28;20486;-68
2021/05/21 04:36:19;;;;;;;3.78;3.10;;;;;;;;;;5113196;28;20024;-67
2021/05/21 04:38:45;;;;;;;3.42;3.13;;;;;;;;;;5114150;28;20485;-69
2021/05/21 04:41:12;;;;;;;3.80;2.85;;;;;;;;;;5114008;28;20035;-70
2021/05/21 04:43:38;;;;;;;4.90;3.50;;;;;;;;;;5114106;28;20072;-68
2021/05/21 04:46:05;;;;;;;6.07;3.53;;;;;;;;;;5114038;28;20030;-70
2021/05/21 04:48:31;;;;;;;3.42;3.10;;;;;;;;;;5114166;28;20024;-69
2021/05/21 04:50:58;;;;;;;3.60;3.08;;;;;;;;;;5113152;28;20023;-69
2021/05/21 04:53:24;;;;;;;3.63;3.15;;;;;;;;;;5113876;28;20016;-68
2021/05/21 04:55:50;;;;;;;3.00;2.70;;;;;;;;;;5113831;28;20019;-69
2021/05/21 04:58:16;;;;;;;6.13;3.03;;;;;;;;;;5113760;28;20072;-69
2021/05/21 05:00:42;;;;;;;3.22;2.88;;;;;;;;;;5113609;28;20486;-70
2021/05/21 05:03:09;;;;;;;2.60;2.40;;;;;;;;;;5113721;28;20493;-69
2021/05/21 05:05:36;;;;;;;2.90;2.60;;;;;;;;;;5113323;28;20047;-69
2021/05/21 05:08:02;;;;;;;4.93;2.40;;;;;;;;;;5112705;28;20064;-69
2021/05/21 05:10:31;;;;;;;2.60;2.40;;;;;;;;;;5113556;28;20028;-69
2021/05/21 05:12:57;;;;;;;3.53;2.50;;;;;;;;;;5113399;28;20020;-68
2021/05/21 05:15:24;;;;;;;4.00;2.33;;;;;;;;;;5113307;28;20020;-69
2021/05/21 05:17:51;;;;;;;3.13;2.60;;;;;;;;;;5113389;28;20024;-69
2021/05/21 05:20:21;;;;;;;3.30;2.13;;;;;;;;;;5095140;28;20030;-69
2021/05/21 05:22:47;;;;;;;2.60;2.40;;;;;;;;;;5113212;28;20069;-68
2021/05/21 05:25:14;;;;;;;4.93;2.28;;;;;;;;;;5112463;28;20114;-68
2021/05/21 05:27:40;;;;;;;2.50;2.10;;;;;;;;;;5113060;28;20024;-70
2021/05/21 05:30:07;;;;;;;2.75;2.00;;;;;;;;;;5113024;28;20023;-69
2021/05/21 05:32:33;;;;;;;3.17;2.10;;;;;;;;;;5101254;28;20051;-69
2021/05/21 05:34:59;;;;;;;2.50;2.20;;;;;;;;;;5092669;28;20012;-69
2021/05/21 05:37:25;;;;;;;2.60;1.90;;;;;;;;;;5092632;28;20092;-69
2021/05/21 05:39:51;;;;;;;1.83;1.73;;;;;;;;;;5092721;28;20020;-68
2021/05/21 05:42:17;;;;;;;2.85;1.90;;;;;;;;;;5112069;28;20482;-68
2021/05/21 05:44:43;;;;;;;2.95;2.22;;;;;;;;;;5112927;28;20031;-68
2021/05/21 05:47:09;;;;;;;3.97;2.17;;;;;;;;;;5100606;28;20031;-68
2021/05/21 05:49:35;;;;;;;3.35;1.98;;;;;;;;;;5092584;28;20039;-68
2021/05/21 05:52:01;;;;;;;3.00;2.20;;;;;;;;;;5092581;28;20031;-69
2021/05/21 05:54:27;;;;;;;2.72;2.08;;;;;;;;;;5092534;28;20049;-68
2021/05/21 05:56:54;;;;;;;4.13;2.00;;;;;;;;;;5092415;28;20028;-67
2021/05/21 05:59:20;;;;;;;2.65;2.05;;;;;;;;;;5108765;28;20032;-69
2021/05/21 06:01:46;;;;;;;4.00;2.22;;;;;;;;;;5112785;28;20024;-69
2021/05/21 06:04:12;;;;;;;3.45;2.13;;;;;;;;;;5109952;28;20047;-68
2021/05/21 06:06:38;;;;;;;3.65;2.67;;;;;;;;;;5109591;28;20481;-69
2021/05/21 06:09:06;;;;;;;34.80;3.05;;;;;;;;;;5110796;28;20049;-69
2021/05/21 06:11:33;;;;;;;2.75;2.13;;;;;;;;;;5110691;28;20020;-68
2021/05/21 06:13:59;;;;;;;4.75;2.17;;;;;;;;;;5110562;28;20020;-67
2021/05/21 06:16:25;;;;;;;3.50;2.10;;;;;;;;;;5090995;28;20530;-67
2021/05/21 06:18:51;;;;;;;3.83;2.28;;;;;;;;;;5090651;28;20028;-67
2021/05/21 06:21:18;;;;;;;2.50;2.25;;;;;;;;;;5091927;28;20105;-67
2021/05/21 06:23:45;;;;;;;2.58;1.90;;;;;;;;;;5112335;28;20020;-68
2021/05/21 06:28:51;;;;;;;5.32;2.50;;;;;;;;;;5112598;28;20046;-70
2021/05/21 06:31:17;;;;;;;3.13;2.55;;;;;;;;;;5109666;28;20016;-68
2021/05/21 06:33:43;;;;;;;3.47;2.30;;;;;;;;;;5092173;28;20028;-68
2021/05/21 06:36:10;;;;;;;8.05;3.47;;;;;;;;;;5092059;28;20055;-69
2021/05/21 06:38:36;;;;;;;3.28;2.40;;;;;;;;;;5092128;28;20024;-69
2021/05/21 06:41:02;;;;;;;3.70;2.15;;;;;;;;;;5091999;28;20034;-68
2021/05/21 06:43:29;;;;;;;3.22;2.22;;;;;;;;;;5102645;28;20038;-68
2021/05/21 06:45:55;;;;;;;3.42;2.42;;;;;;;;;;5112167;28;20066;-69
2021/05/21 06:48:22;;;;;;;2.30;2.10;;;;;;;;;;5111638;28;20032;-68
2021/05/21 06:50:48;;;;;;;3.53;2.55;;;;;;;;;;5112304;28;20102;-69
2021/05/21 06:53:14;;;;;;;5.13;2.42;;;;;;;;;;5112334;28;20020;-69
2021/05/21 06:55:40;;;;;;;4.82;2.45;;;;;;;;;;5112122;28;20058;-69
2021/05/21 06:58:06;;;;;;;6.35;2.25;;;;;;;;;;5105985;28;20028;-70
2021/05/21 07:00:36;;;;;;;4.03;2.30;;;;;;;;;;5098719;28;20020;-68
2021/05/21 07:03:02;;;;;;;6.00;2.60;;;;;;;;;;5104750;28;20052;-69
2021/05/21 07:05:28;;;;;;;2.47;2.20;;;;;;;;;;5099435;28;20521;-69
2021/05/21 07:07:54;;;;;;;4.78;2.70;;;;;;;;;;5113674;28;20072;-68
2021/05/21 07:10:20;;;;;;;4.95;2.50;;;;;;;;;;5113019;28;20080;-69
2021/05/21 07:12:46;;;;;;;2.78;2.40;;;;;;;;;;5113780;28;20047;-69
2021/05/21 07:15:12;;;;;;;2.80;2.25;;;;;;;;;;5107273;28;20028;-70
2021/05/21 07:17:39;;;;;;;4.57;2.58;;;;;;;;;;5107635;28;20027;-69
2021/05/21 07:20:06;;;;;;;3.15;2.33;;;;;;;;;;5104053;28;20031;-70
2021/05/21 07:22:32;;;;;;;3.03;2.20;;;;;;;;;;5105299;28;20081;-70
2021/05/21 07:24:58;;;;;;;2.65;2.20;;;;;;;;;;5112298;28;20033;-69
2021/05/21 07:27:24;;;;;;;3.92;2.45;;;;;;;;;;5110690;28;20057;-69
2021/05/21 07:29:50;;;;;;;3.90;2.30;;;;;;;;;;5113791;28;20471;-69
2021/05/21 07:32:16;;;;;;;4.53;2.95;;;;;;;;;;5108959;28;20103;-70
2021/05/21 07:34:42;;;;;;;5.95;2.70;;;;;;;;;;5094789;28;20031;-68
2021/05/21 07:37:09;;;;;;;3.17;2.30;;;;;;;;;;5077894;28;20410;-67
2021/05/21 07:39:35;;;;;;;4.57;2.20;;;;;;;;;;5095139;28;20467;-69
2021/05/21 07:42:01;;;;;;;5.25;2.30;;;;;;;;;;5093487;28;20028;-69
2021/05/21 07:44:27;;;;;;;3.40;2.15;;;;;;;;;;5094875;28;20585;-69
2021/05/21 07:46:53;;;;;;;2.50;2.25;;;;;;;;;;5094600;28;20055;-69
2021/05/21 07:49:24;;;;;;;3.70;2.30;;;;;;;;;;5094640;28;20024;-69
2021/05/21 07:51:51;;;;;;;2.53;2.20;;;;;;;;;;5094949;28;20099;-68
2021/05/21 07:54:17;;;;;;;4.63;2.20;;;;;;;;;;5094462;28;20025;-68
2021/05/21 07:56:44;;;;;;;3.92;2.22;;;;;;;;;;5094837;28;20391;-69
2021/05/21 07:59:11;;;;;;;5.22;2.28;;;;;;;;;;5094436;28;20103;-69
2021/05/21 08:01:38;;;;;;;2.85;2.22;;;;;;;;;;5094488;28;20046;-69
2021/05/21 08:04:04;;;;;;;4.78;3.30;;;;;;;;;;5094274;28;20059;-69
2021/05/21 08:06:30;;;;;;;5.10;2.50;;;;;;;;;;5094462;28;20073;-69
2021/05/21 08:08:57;;;;;;;4.50;2.53;;;;;;;;;;5094471;28;20024;-69
2021/05/21 08:11:23;;;;;;;4.22;2.45;;;;;;;;;;5094268;28;20020;-68
2021/05/21 08:13:49;;;;;;;6.68;2.42;;;;;;;;;;5094166;28;20024;-68
2021/05/21 08:16:15;;;;;;;2.65;2.45;;;;;;;;;;5094120;28;20023;-69
2021/05/21 08:18:42;;;;;;;3.45;2.28;;;;;;;;;;5094391;28;20126;-69
2021/05/21 08:21:08;;;;;;;5.63;2.20;;;;;;;;;;5094027;28;20035;-70
2021/05/21 08:23:36;;;;;;;3.58;2.47;;;;;;;;;;5112399;28;20031;-69
2021/05/21 08:26:02;;;;;;;3.55;2.30;;;;;;;;;;5114256;28;20516;-69
2021/05/21 08:28:28;;;;;;;4.00;2.30;;;;;;;;;;5114240;28;20047;-69
2021/05/21 08:30:55;;;;;;;6.80;2.83;;;;;;;;;;5114280;28;20047;-69
2021/05/21 08:33:21;;;;;;;4.53;2.47;;;;;;;;;;5114250;28;20148;-71
2021/05/21 08:35:50;;;;;;;7.20;2.72;;;;;;;;;;5114233;28;20039;-69
2021/05/21 08:38:17;;;;;;;3.47;2.90;;;;;;;;;;5113914;28;20028;-69
2021/05/21 08:40:43;;;;;;;7.97;3.60;;;;;;;;;;5113998;28;20019;-70
2021/05/21 08:43:10;;;;;;;4.10;2.30;;;;;;;;;;5114123;28;20036;-68
2021/05/21 08:45:36;;;;;;;7.15;2.72;;;;;;;;;;5113960;28;20073;-69
2021/05/21 08:48:03;;;;;;;4.63;2.35;;;;;;;;;;5113807;28;20559;-69
2021/05/21 08:50:30;;;;;;;4.07;2.58;;;;;;;;;;5113966;28;20024;-69
2021/05/21 08:52:56;;;;;;;4.80;3.05;;;;;;;;;;5104104;28;20052;-69
2021/05/21 08:55:22;;;;;;;4.10;2.90;;;;;;;;;;5105100;28;20077;-70
2021/05/21 08:57:48;;;;;;;3.78;2.60;;;;;;;;;;5094620;28;20120;-69
2021/05/21 09:00:15;;;;;;;4.63;2.53;;;;;;;;;;5092912;28;20028;-69
2021/05/21 09:02:41;;;;;;;6.88;2.45;;;;;;;;;;5093060;28;20059;-69
2021/05/21 09:05:08;;;;;;;6.38;3.00;;;;;;;;;;5092835;28;20435;-70
2021/05/21 09:07:36;;;;;;;4.07;2.20;;;;;;;;;;5092971;28;20032;-69
2021/05/21 09:10:07;;;;;;;4.05;2.35;;;;;;;;;;5093393;28;20160;-69
2021/05/21 09:12:37;;;;;;;5.22;2.47;;;;;;;;;;5093084;28;20024;-70
2021/05/21 09:15:07;;;;;;;4.30;2.40;;;;;;;;;;5093073;28;20020;-70
2021/05/21 09:17:34;;;;;;;3.97;2.70;;;;;;;;;;5093338;28;20352;-68
2021/05/21 09:20:00;;;;;;;6.45;2.67;;;;;;;;;;5092773;28;20034;-71
2021/05/21 09:22:26;;;;;;;4.88;2.38;;;;;;;;;;5092524;28;20024;-70
2021/05/21 09:24:53;;;;;;;4.13;2.50;;;;;;;;;;5105440;28;20466;-70
2021/05/21 09:27:20;;;;;;;11.60;4.18;;;;;;;;;;5113033;28;20033;-70
2021/05/21 09:29:47;;;;;;;4.20;2.28;;;;;;;;;;5108087;28;20017;-69
2021/05/21 09:32:28;;;;;;;6.43;2.40;;;;;;;;;;5111265;28;20028;-68
2021/05/21 09:34:59;;;;;;;3.47;2.45;;;;;;;;;;5099177;28;20419;-70
2021/05/21 09:37:26;;;;;;;2.58;2.22;;;;;;;;;;5099594;28;20036;-68
2021/05/21 09:40:11;;;;;;;3.40;2.10;;;;;;;;;;5104698;28;20019;-69
2021/05/21 09:42:43;;;;;;;5.53;3.00;;;;;;;;;;5101891;28;20468;-68
2021/05/21 09:45:18;;;;;;;5.55;2.50;;;;;;;;;;5105109;28;20036;-69
2021/05/21 09:47:55;;;;;;;7.38;3.58;;;;;;;;;;5111374;28;20020;-71
2021/05/21 09:50:40;;;;;;;3.03;2.10;;;;;;;;;;5098930;28;20379;-71
2021/05/21 09:53:07;;;;;;;5.05;3.28;;;;;;;;;;5096670;28;20019;-70
2021/05/21 09:55:35;;;;;;;7.07;2.90;;;;;;;;;;5093639;28;20015;-70
2021/05/21 09:58:01;;;;;;;7.70;3.42;;;;;;;;;;5098788;28;20030;-70
2021/05/21 10:00:27;;;;;;;7.38;3.80;;;;;;;;;;5086889;28;20028;-70
2021/05/21 10:02:54;;;;;;;7.55;3.80;;;;;;;;;;5092644;28;20062;-69
2021/05/21 10:05:20;;;;;;;7.90;3.80;;;;;;;;;;5091964;28;20044;-70
2021/05/21 10:07:48;;;;;;;6.18;2.60;;;;;;;;;;5110693;28;20027;-71
2021/05/21 10:10:14;;;;;;;7.43;3.63;;;;;;;;;;5112953;28;20047;-69
2021/05/21 10:12:42;;;;;;;8.80;3.47;;;;;;;;;;5092701;28;20386;-70
2021/05/21 10:15:08;;;;;;;7.05;3.45;;;;;;;;;;5101427;28;20024;-70
2021/05/21 10:17:35;;;;;;;10.32;4.80;;;;;;;;;;5112594;28;20016;-72
2021/05/21 10:20:01;;;;;;;8.07;3.92;;;;;;;;;;5108928;28;20043;-71
2021/05/21 10:22:29;;;;;;;6.20;3.70;;;;;;;;;;5098909;28;20038;-71
2021/05/21 10:25:09;;;;;;;7.32;3.92;;;;;;;;;;5104350;28;20545;-70
2021/05/21 10:27:37;;;;;;;6.22;3.17;;;;;;;;;;5103437;28;20032;-70
2021/05/21 10:30:05;;;;;;;4.68;3.13;;;;;;;;;;5092229;28;20027;-70
2021/05/21 10:32:32;;;;;;;5.07;2.83;;;;;;;;;;5092964;28;20459;-69
2021/05/21 10:34:59;;;;;;;5.63;3.33;;;;;;;;;;5114198;28;20031;-68
2021/05/21 10:37:30;;;;;;;10.98;5.70;;;;;;;;;;5115685;28;20034;-69
2021/05/21 10:40:14;;;;;;;5.32;2.88;;;;;;;;;;5104292;28;20034;-68
2021/05/21 10:42:47;;;;;;;8.43;4.07;;;;;;;;;;5099378;28;20058;-71
2021/05/21 10:45:15;;;;;;;13.55;7.53;;;;;;;;;;5103934;28;20089;-72
2021/05/21 10:47:44;;;;;;;7.63;4.50;;;;;;;;;;5113111;28;20092;-71
2021/05/21 10:50:16;;;;;;;15.15;7.55;;;;;;;;;;5116381;28;20031;-72
2021/05/21 10:52:54;;;;;;;6.32;4.00;;;;;;;;;;5114494;28;20127;-70
2021/05/21 10:55:21;;;;;;;6.40;3.45;;;;;;;;;;5114507;28;20027;-73
2021/05/21 10:57:58;;;;;;;6.57;3.40;;;;;;;;;;5116038;28;20030;-70
2021/05/21 11:00:24;;;;;;;4.45;2.60;;;;;;;;;;5114356;28;20506;-69
2021/05/21 11:02:52;;;;;;;2.78;2.25;;;;;;;;;;5100417;28;20371;-71
2021/05/21 11:05:23;;;;;;;3.70;2.72;;;;;;;;;;5095569;28;20044;-71
2021/05/21 11:07:53;;;;;;;3.28;2.22;;;;;;;;;;5096756;28;20046;-69
2021/05/21 11:10:35;;;;;;;6.40;3.72;;;;;;;;;;5095745;28;20013;-71
2021/05/21 11:13:02;;;;;;;3.67;2.72;;;;;;;;;;5107959;28;20393;-71
2021/05/21 11:15:34;;;;;;;3.10;2.75;;;;;;;;;;5095544;28;20020;-70
2021/05/21 11:18:15;;;;;;;4.38;2.25;;;;;;;;;;5095193;28;20539;-71
2021/05/21 11:21:00;;;;;;;5.70;2.10;;;;;;;;;;5105564;28;20107;-69
2021/05/21 11:23:27;;;;;;;5.20;2.13;;;;;;;;;;5108443;28;20027;-70
2021/05/21 11:26:21;;;;;;;2.83;2.28;;;;;;;;;;5095484;28;20024;-70
2021/05/21 11:28:50;;;;;;;3.78;2.35;;;;;;;;;;5094987;28;20035;-70
2021/05/21 11:31:16;;;;;;;3.38;2.30;;;;;;;;;;5095067;28;20416;-71
2021/05/21 11:33:47;;;;;;;4.10;2.35;;;;;;;;;;5096586;28;20058;-70
2021/05/21 11:36:14;;;;;;;2.97;2.40;;;;;;;;;;5105361;28;20032;-70
2021/05/21 11:38:40;;;;;;;3.45;2.42;;;;;;;;;;5095106;28;20470;-70
2021/05/21 11:41:07;;;;;;;4.93;2.50;;;;;;;;;;5111917;28;20032;-71
2021/05/21 11:43:33;;;;;;;4.68;2.92;;;;;;;;;;5114706;28;20386;-71
2021/05/21 11:46:00;;;;;;;7.03;2.85;;;;;;;;;;5107374;28;20062;-71
2021/05/21 11:48:32;;;;;;;4.05;2.55;;;;;;;;;;5109817;28;20028;-70
2021/05/21 11:50:59;;;;;;;5.93;2.92;;;;;;;;;;5113757;28;20016;-70
2021/05/21 11:53:25;;;;;;;6.15;4.25;;;;;;;;;;5095075;28;20020;-70
2021/05/21 11:55:51;;;;;;;5.30;2.83;;;;;;;;;;5095667;28;20387;-69
2021/05/21 11:58:24;;;;;;;4.07;2.90;;;;;;;;;;5095752;28;20054;-69
2021/05/21 12:00:51;;;;;;;5.97;2.78;;;;;;;;;;5099343;28;20020;-70
2021/05/21 12:03:17;;;;;;;5.10;2.58;;;;;;;;;;5114281;28;20044;-69
2021/05/21 12:05:44;;;;;;;3.95;2.67;;;;;;;;;;5116972;28;20044;-69
2021/05/21 12:08:10;;;;;;;3.80;3.00;;;;;;;;;;5109935;28;20024;-69
2021/05/21 12:10:36;;;;;;;5.53;3.20;;;;;;;;;;5089625;28;20016;-68
2021/05/21 12:13:06;;;;;;;4.00;2.85;;;;;;;;;;5104611;28;20028;-68
2021/05/21 12:15:32;;;;;;;7.93;3.90;;;;;;;;;;5099451;28;20036;-67
2021/05/21 12:17:59;;;;;;;7.18;3.67;;;;;;;;;;5101304;28;20098;-70
2021/05/21 12:20:25;;;;;;;6.60;4.13;;;;;;;;;;5107189;28;20031;-69
2021/05/21 12:23:00;;;;;;;5.05;2.58;;;;;;;;;;5113195;28;20054;-71
2021/05/21 12:25:28;;;;;;;8.35;3.50;;;;;;;;;;5113269;28;20028;-70
2021/05/21 12:27:55;;;;;;;5.32;2.75;;;;;;;;;;5114266;28;20027;-70
2021/05/21 12:30:21;;;;;;;11.27;3.83;;;;;;;;;;5114217;28;20497;-69
2021/05/21 12:32:48;;;;;;;8.60;3.30;;;;;;;;;;5114355;28;20470;-69
2021/05/21 12:35:16;;;;;;;8.27;2.97;;;;;;;;;;5114394;28;20023;-71
2021/05/21 12:37:49;;;;;;;4.72;3.20;;;;;;;;;;5114265;28;20478;-70
2021/05/21 12:40:17;;;;;;;5.78;3.30;;;;;;;;;;5114171;28;20482;-71
2021/05/21 12:42:46;;;;;;;5.88;3.60;;;;;;;;;;5114141;28;20034;-71
2021/05/21 12:45:12;;;;;;;8.27;3.70;;;;;;;;;;5113921;28;20482;-71
2021/05/21 12:47:44;;;;;;;4.47;2.83;;;;;;;;;;5114087;28;20093;-71
2021/05/21 12:50:12;;;;;;;8.10;3.78;;;;;;;;;;5114039;28;20165;-71
2021/05/21 12:52:57;;;;;;;9.20;3.40;;;;;;;;;;5095607;28;20117;-71
2021/05/21 12:55:27;;;;;;;8.73;3.30;;;;;;;;;;5113936;28;20019;-70
2021/05/21 12:57:57;;;;;;;7.05;3.25;;;;;;;;;;5113023;28;20020;-71
2021/05/21 13:00:25;;;;;;;5.60;3.63;;;;;;;;;;5113852;28;20540;-70
2021/05/21 13:02:53;;;;;;;10.63;3.40;;;;;;;;;;5113648;28;20027;-71
2021/05/21 13:05:19;;;;;;;5.22;3.08;;;;;;;;;;5113501;28;20058;-71
2021/05/21 13:07:58;;;;;;;7.35;3.10;;;;;;;;;;5113788;28;20513;-72
2021/05/21 13:10:28;;;;;;;6.07;3.00;;;;;;;;;;5113614;28;20536;-69
2021/05/21 13:12:55;;;;;;;5.07;2.95;;;;;;;;;;5113261;28;20024;-67
2021/05/21 13:15:23;;;;;;;9.52;2.88;;;;;;;;;;5114270;28;20019;-69
2021/05/21 13:17:50;;;;;;;5.72;3.35;;;;;;;;;;5113677;28;20049;-68
2021/05/21 13:20:24;;;;;;;3.58;2.80;;;;;;;;;;5113312;28;20529;-69
2021/05/21 13:22:51;;;;;;;6.25;2.72;;;;;;;;;;5115331;28;20434;-70
2021/05/21 13:25:19;;;;;;;6.38;2.70;;;;;;;;;;5114608;28;20024;-69
2021/05/21 13:27:49;;;;;;;5.28;2.80;;;;;;;;;;5113869;28;20023;-70
2021/05/21 13:30:16;;;;;;;5.05;2.70;;;;;;;;;;5113853;28;20023;-68
2021/05/21 13:32:42;;;;;;;7.60;2.97;;;;;;;;;;5114352;28;20094;-72
2021/05/21 13:35:08;;;;;;;5.22;2.75;;;;;;;;;;5113844;28;20094;-69
2021/05/21 13:37:35;;;;;;;7.38;3.45;;;;;;;;;;5113173;28;20035;-69
2021/05/21 13:40:01;;;;;;;4.40;2.40;;;;;;;;;;5112958;28;20035;-70
2021/05/21 13:42:29;;;;;;;7.95;3.40;;;;;;;;;;5112768;28;20525;-71
2021/05/21 13:44:55;;;;;;;4.95;2.67;;;;;;;;;;5113059;28;20038;-69
2021/05/21 13:47:21;;;;;;;11.27;3.38;;;;;;;;;;5113088;28;20355;-67
2021/05/21 13:49:47;;;;;;;7.18;3.17;;;;;;;;;;5112765;28;20027;-68
2021/05/21 13:52:14;;;;;;;6.13;2.72;;;;;;;;;;5112697;28;20024;-69
2021/05/21 13:54:40;;;;;;;6.15;3.03;;;;;;;;;;5112776;28;20026;-68
2021/05/21 13:57:06;;;;;;;4.80;2.90;;;;;;;;;;5112648;28;20031;-70
2021/05/21 13:59:32;;;;;;;6.25;3.65;;;;;;;;;;5112698;28;20028;-68
2021/05/21 14:01:58;;;;;;;6.57;3.35;;;;;;;;;;5112644;28;20058;-69
2021/05/21 14:04:24;;;;;;;4.72;2.75;;;;;;;;;;5112603;28;20042;-67
2021/05/21 14:06:50;;;;;;;7.47;3.70;;;;;;;;;;5112448;28;20486;-66
2021/05/21 14:09:16;;;;;;;4.85;2.83;;;;;;;;;;5116369;28;20476;-69
2021/05/21 14:11:43;;;;;;;4.32;2.58;;;;;;;;;;5119421;28;20080;-68
2021/05/21 14:14:09;;;;;;;5.13;2.92;;;;;;;;;;5119647;28;20024;-67
2021/05/21 14:16:38;;;;;;;7.07;3.15;;;;;;;;;;5114540;28;20034;-67
2021/05/21 14:19:04;;;;;;;5.78;2.85;;;;;;;;;;5097929;28;20039;-66
2021/05/21 14:21:30;;;;;;;13.00;5.03;;;;;;;;;;5113944;27;20035;-68
2021/05/21 14:23:59;;;;;;;7.90;3.20;;;;;;;;;;5100478;28;20024;-70
2021/05/21 14:26:28;;;;;;;7.15;3.00;;;;;;;;;;5102364;28;20067;-67
2021/05/21 14:28:54;;;;;;;8.63;3.40;;;;;;;;;;5108955;28;20031;-68
2021/05/21 14:31:20;;;;;;;5.53;3.20;;;;;;;;;;5110416;28;20023;-68
2021/05/21 14:33:48;;;;;;;6.00;3.25;;;;;;;;;;5106852;28;20478;-70
2021/05/21 14:36:15;;;;;;;6.80;4.40;;;;;;;;;;5119102;28;20419;-69
2021/05/21 14:38:41;;;;;;;6.03;4.50;;;;;;;;;;5107401;28;20395;-70
2021/05/21 14:41:07;;;;;;;10.00;4.22;;;;;;;;;;5098936;28;20051;-70
2021/05/21 14:43:33;;;;;;;4.43;3.13;;;;;;;;;;5098819;28;20387;-69
2021/05/21 14:45:59;;;;;;;6.93;3.00;;;;;;;;;;5098848;28;20110;-68